Time;durP1;ratioP1;P1;durP2;ratioP2;P2;SDS_P1;SDS_P2;PMS_P1;PMS_P2;Temp;Humidity;BMP_temperature;BMP_pressure;BME280_temperature;BME280_humidity;BME280_pressure;Samples;Min_cycle;Max_cycle;Signal;HPM_P1;HPM_P2
2021/06/30 00:01:43;;;;;;;3.30;1.30;;;;;;;;;;6966336;28;20045;-88
2021/06/30 00:05:06;;;;;;;3.38;1.10;;;;;;;;;;6942915;28;20053;-88
2021/06/30 00:08:26;;;;;;;2.33;1.33;;;;;;;;;;6950940;28;20094;-92
2021/06/30 00:11:47;;;;;;;2.78;1.25;;;;;;;;;;6961672;28;20072;-88
2021/06/30 00:19:43;;;;;;;1.63;1.30;;;;;;;;;;6954110;28;20053;-88
2021/06/30 00:23:04;;;;;;;1.13;1.02;;;;;;;;;;6953601;28;20060;-88
2021/06/30 00:26:25;;;;;;;1.67;1.10;;;;;;;;;;6957620;28;20041;-88
2021/06/30 00:29:45;;;;;;;2.03;1.40;;;;;;;;;;6916406;28;20505;-88
2021/06/30 00:33:06;;;;;;;3.35;1.42;;;;;;;;;;6970213;28;20045;-88
2021/06/30 00:37:17;;;;;;;0.80;0.80;;;;;;;;;;6965986;28;20061;-88
2021/06/30 00:40:38;;;;;;;4.97;1.30;;;;;;;;;;6956809;28;20079;-89
2021/06/30 00:43:59;;;;;;;5.18;1.50;;;;;;;;;;6950099;28;20060;-89
2021/06/30 00:47:21;;;;;;;4.40;1.30;;;;;;;;;;6938242;28;20057;-89
2021/06/30 00:50:41;;;;;;;1.83;1.10;;;;;;;;;;6969278;28;20102;-89
2021/06/30 00:54:02;;;;;;;4.07;1.17;;;;;;;;;;6949178;28;20053;-88
2021/06/30 00:57:23;;;;;;;1.83;1.20;;;;;;;;;;6952070;28;20044;-88
2021/06/30 01:00:43;;;;;;;3.33;1.15;;;;;;;;;;6960310;28;20090;-90
2021/06/30 01:04:04;;;;;;;4.13;1.20;;;;;;;;;;6962497;28;20521;-90
2021/06/30 01:07:24;;;;;;;1.92;0.98;;;;;;;;;;6966339;28;20127;-89
2021/06/30 01:10:44;;;;;;;2.97;1.45;;;;;;;;;;6969165;28;20092;-89
2021/06/30 01:14:05;;;;;;;1.48;1.13;;;;;;;;;;6964285;28;20083;-89
2021/06/30 01:17:25;;;;;;;1.35;1.05;;;;;;;;;;6965904;28;20091;-89
2021/06/30 01:20:46;;;;;;;2.13;1.15;;;;;;;;;;6944478;28;20054;-88
2021/06/30 01:24:07;;;;;;;2.90;1.20;;;;;;;;;;6966650;28;20041;-88
2021/06/30 01:27:32;;;;;;;2.13;1.02;;;;;;;;;;6987050;22;20057;-76
2021/06/30 01:30:53;;;;;;;1.48;1.02;;;;;;;;;;6968618;28;20102;-76
2021/06/30 01:34:14;;;;;;;2.13;1.00;;;;;;;;;;6968357;28;20051;-76
2021/06/30 01:37:44;;;;;;;1.73;1.10;;;;;;;;;;6968467;28;20045;-75
2021/06/30 01:41:05;;;;;;;3.70;1.20;;;;;;;;;;6968939;28;20056;-76
2021/06/30 01:44:25;;;;;;;1.30;0.93;;;;;;;;;;6968220;28;20052;-77
2021/06/30 01:47:45;;;;;;;1.40;0.90;;;;;;;;;;6968055;28;20056;-76
2021/06/30 01:51:06;;;;;;;1.70;1.00;;;;;;;;;;6968437;28;20479;-76
2021/06/30 01:54:26;;;;;;;1.00;0.90;;;;;;;;;;6967927;28;20545;-76
2021/06/30 01:57:49;;;;;;;2.58;1.17;;;;;;;;;;6934117;28;20106;-76
2021/06/30 02:01:09;;;;;;;1.15;0.93;;;;;;;;;;6968765;28;20099;-76
2021/06/30 02:04:30;;;;;;;1.42;0.90;;;;;;;;;;6968504;28;20072;-76
2021/06/30 02:07:53;;;;;;;2.13;1.08;;;;;;;;;;6950283;28;20509;-76
2021/06/30 02:11:13;;;;;;;2.10;1.00;;;;;;;;;;6968158;28;20099;-76
2021/06/30 02:14:34;;;;;;;2.05;1.10;;;;;;;;;;6949390;28;20037;-76
2021/06/30 02:17:56;;;;;;;2.13;0.82;;;;;;;;;;6968235;28;20045;-76
2021/06/30 02:21:16;;;;;;;2.42;1.15;;;;;;;;;;6950019;28;20045;-76
2021/06/30 02:24:37;;;;;;;1.95;1.08;;;;;;;;;;6965645;28;20106;-77
2021/06/30 02:27:57;;;;;;;1.17;1.08;;;;;;;;;;6966898;28;20136;-76
2021/06/30 02:31:18;;;;;;;0.95;0.90;;;;;;;;;;6966288;28;20107;-76
2021/06/30 02:34:38;;;;;;;1.65;1.10;;;;;;;;;;6966347;28;20506;-76
2021/06/30 02:37:59;;;;;;;1.63;1.05;;;;;;;;;;6967232;28;20041;-75
2021/06/30 02:41:20;;;;;;;1.92;1.00;;;;;;;;;;6966086;28;20145;-75
2021/06/30 02:44:40;;;;;;;3.08;0.80;;;;;;;;;;6950888;28;20057;-75
2021/06/30 02:48:00;;;;;;;0.77;0.77;;;;;;;;;;6966390;28;20053;-75
2021/06/30 02:51:21;;;;;;;2.70;1.20;;;;;;;;;;6966884;28;20057;-76
2021/06/30 02:54:41;;;;;;;1.52;1.00;;;;;;;;;;6966798;28;20045;-76
2021/06/30 02:58:02;;;;;;;2.33;1.20;;;;;;;;;;6966734;28;20080;-75
2021/06/30 03:01:22;;;;;;;1.05;1.00;;;;;;;;;;6967194;28;20136;-75
2021/06/30 03:04:43;;;;;;;1.80;1.00;;;;;;;;;;6966463;28;20482;-76
2021/06/30 03:08:03;;;;;;;1.48;0.90;;;;;;;;;;6966697;28;20049;-76
2021/06/30 03:11:24;;;;;;;3.55;0.90;;;;;;;;;;6967121;28;20053;-76
2021/06/30 03:14:44;;;;;;;1.60;1.10;;;;;;;;;;6966682;28;20045;-76
2021/06/30 03:18:05;;;;;;;1.63;1.00;;;;;;;;;;6966985;28;20041;-76
2021/06/30 03:21:25;;;;;;;1.25;0.77;;;;;;;;;;6966324;28;20495;-76
2021/06/30 03:24:46;;;;;;;1.58;1.17;;;;;;;;;;6965996;28;20045;-75
2021/06/30 03:28:06;;;;;;;0.70;0.70;;;;;;;;;;6966748;28;20052;-76
2021/06/30 03:31:27;;;;;;;1.13;0.90;;;;;;;;;;6965897;28;20380;-75
2021/06/30 03:34:48;;;;;;;1.65;0.90;;;;;;;;;;6966314;28;20505;-75
2021/06/30 03:38:08;;;;;;;2.22;1.05;;;;;;;;;;6966187;28;20084;-75
2021/06/30 03:41:28;;;;;;;1.00;0.90;;;;;;;;;;6966297;28;20045;-75
2021/06/30 03:44:49;;;;;;;1.23;0.85;;;;;;;;;;6965380;28;20072;-75
2021/06/30 03:48:09;;;;;;;1.17;0.90;;;;;;;;;;6953918;28;20045;-76
2021/06/30 03:51:30;;;;;;;0.80;0.80;;;;;;;;;;6965806;28;20148;-75
2021/06/30 03:54:50;;;;;;;1.10;0.88;;;;;;;;;;6961547;28;20139;-76
2021/06/30 03:58:11;;;;;;;1.13;1.00;;;;;;;;;;6967424;28;20068;-76
2021/06/30 04:01:31;;;;;;;0.88;0.82;;;;;;;;;;6970854;28;20080;-75
2021/06/30 04:04:52;;;;;;;1.08;0.90;;;;;;;;;;6969887;28;20495;-79
2021/06/30 04:08:12;;;;;;;1.45;0.85;;;;;;;;;;6970839;28;20398;-76
2021/06/30 04:11:33;;;;;;;0.80;0.80;;;;;;;;;;6970368;28;20114;-76
2021/06/30 04:14:54;;;;;;;3.55;0.80;;;;;;;;;;6967770;28;20470;-76
2021/06/30 04:18:14;;;;;;;3.53;0.82;;;;;;;;;;6970454;28;20068;-76
2021/06/30 04:21:34;;;;;;;1.27;0.73;;;;;;;;;;6969938;28;20051;-75
2021/06/30 04:24:55;;;;;;;0.75;0.70;;;;;;;;;;6970055;28;20486;-75
2021/06/30 04:28:15;;;;;;;2.10;0.95;;;;;;;;;;6969453;28;20055;-75
2021/06/30 04:31:36;;;;;;;2.60;1.00;;;;;;;;;;6969967;28;20053;-75
2021/06/30 04:34:56;;;;;;;1.25;1.00;;;;;;;;;;6967205;28;20060;-75
2021/06/30 04:38:17;;;;;;;1.00;0.93;;;;;;;;;;6969885;28;20086;-76
2021/06/30 04:41:37;;;;;;;0.82;0.80;;;;;;;;;;6969813;28;20094;-76
2021/06/30 04:44:57;;;;;;;1.50;1.00;;;;;;;;;;6969691;28;20506;-76
2021/06/30 04:48:19;;;;;;;0.80;0.80;;;;;;;;;;6969056;28;20080;-76
2021/06/30 04:51:41;;;;;;;9.50;1.00;;;;;;;;;;6969766;28;20048;-76
2021/06/30 04:55:02;;;;;;;1.67;0.80;;;;;;;;;;6965575;28;20048;-76
2021/06/30 04:58:23;;;;;;;2.67;0.85;;;;;;;;;;6968655;28;20420;-76
2021/06/30 05:01:44;;;;;;;2.30;1.00;;;;;;;;;;6969267;28;20081;-76
2021/06/30 05:05:05;;;;;;;1.25;0.98;;;;;;;;;;6968143;28;20048;-76
2021/06/30 05:08:25;;;;;;;1.25;0.90;;;;;;;;;;6968325;28;20063;-75
2021/06/30 05:11:46;;;;;;;2.53;1.17;;;;;;;;;;6969988;28;20132;-75
2021/06/30 05:15:06;;;;;;;1.20;0.82;;;;;;;;;;6981625;28;20058;-76
2021/06/30 05:18:27;;;;;;;0.77;0.63;;;;;;;;;;6983127;28;20041;-75
2021/06/30 05:21:47;;;;;;;0.80;0.80;;;;;;;;;;6968916;28;20041;-75
2021/06/30 05:25:08;;;;;;;2.35;1.00;;;;;;;;;;6968163;28;20055;-77
2021/06/30 05:28:29;;;;;;;0.85;0.85;;;;;;;;;;6968953;28;20053;-77
2021/06/30 05:31:49;;;;;;;2.90;0.88;;;;;;;;;;6968172;28;20049;-77
2021/06/30 05:35:10;;;;;;;2.20;0.90;;;;;;;;;;6968605;28;20505;-77
2021/06/30 05:38:30;;;;;;;2.50;1.00;;;;;;;;;;6967270;28;20041;-75
2021/06/30 05:41:51;;;;;;;1.52;0.80;;;;;;;;;;6968652;28;20060;-76
2021/06/30 05:45:20;;;;;;;1.02;0.88;;;;;;;;;;6967663;28;20140;-77
2021/06/30 05:48:40;;;;;;;1.83;0.90;;;;;;;;;;6968201;28;20049;-77
2021/06/30 05:52:01;;;;;;;1.67;1.00;;;;;;;;;;6968335;28;20083;-77
2021/06/30 05:55:22;;;;;;;4.32;1.20;;;;;;;;;;6967671;28;20052;-78
2021/06/30 05:58:42;;;;;;;2.25;1.00;;;;;;;;;;6968396;28;20060;-79
2021/06/30 06:02:03;;;;;;;0.70;0.70;;;;;;;;;;6968285;28;20073;-79
2021/06/30 06:05:23;;;;;;;1.13;0.90;;;;;;;;;;6959064;28;20096;-78
2021/06/30 06:08:44;;;;;;;1.33;1.10;;;;;;;;;;6967577;28;20056;-78
2021/06/30 06:12:05;;;;;;;3.40;1.00;;;;;;;;;;6966603;28;20033;-78
2021/06/30 06:15:26;;;;;;;2.50;0.95;;;;;;;;;;6967220;28;20057;-77
2021/06/30 06:18:47;;;;;;;0.90;0.70;;;;;;;;;;6946995;28;20136;-78
2021/06/30 06:22:08;;;;;;;2.35;1.02;;;;;;;;;;6948568;28;20045;-78
2021/06/30 06:25:28;;;;;;;2.85;0.90;;;;;;;;;;6966653;28;20064;-78
2021/06/30 06:28:49;;;;;;;2.30;0.85;;;;;;;;;;6967775;28;20041;-78
2021/06/30 06:32:09;;;;;;;2.05;0.85;;;;;;;;;;6967214;28;20049;-80
2021/06/30 06:35:30;;;;;;;1.58;0.80;;;;;;;;;;6966774;28;20048;-78
2021/06/30 06:38:51;;;;;;;1.88;0.90;;;;;;;;;;6966931;28;20048;-80
2021/06/30 06:42:12;;;;;;;2.47;0.88;;;;;;;;;;6946277;28;20051;-79
2021/06/30 06:45:34;;;;;;;1.35;1.00;;;;;;;;;;6920923;28;20060;-78
2021/06/30 06:48:55;;;;;;;2.03;1.00;;;;;;;;;;6920803;28;20041;-79
2021/06/30 06:52:15;;;;;;;0.82;0.82;;;;;;;;;;6937144;28;20107;-79
2021/06/30 06:55:35;;;;;;;1.40;1.08;;;;;;;;;;6935457;28;20041;-80
2021/06/30 06:58:56;;;;;;;4.68;1.10;;;;;;;;;;6944970;28;20045;-79
2021/06/30 07:02:17;;;;;;;1.45;0.90;;;;;;;;;;6939105;28;20084;-77
2021/06/30 07:05:37;;;;;;;1.50;0.80;;;;;;;;;;6939052;28;20126;-76
2021/06/30 07:08:57;;;;;;;4.32;0.90;;;;;;;;;;6937957;28;20046;-76
2021/06/30 07:12:20;;;;;;;1.58;0.93;;;;;;;;;;6921557;28;20057;-76
2021/06/30 07:15:41;;;;;;;1.95;1.00;;;;;;;;;;6937765;28;20071;-77
2021/06/30 07:19:02;;;;;;;0.98;0.88;;;;;;;;;;6938076;28;20446;-79
2021/06/30 07:22:22;;;;;;;0.90;0.85;;;;;;;;;;6920411;28;20487;-78
2021/06/30 07:25:42;;;;;;;11.23;1.00;;;;;;;;;;6922246;28;20065;-81
2021/06/30 07:29:03;;;;;;;3.80;1.70;;;;;;;;;;6938452;28;20486;-80
2021/06/30 07:32:23;;;;;;;7.50;1.90;;;;;;;;;;6940611;28;20042;-83
2021/06/30 07:35:44;;;;;;;4.93;1.90;;;;;;;;;;6943375;28;20052;-83
2021/06/30 07:39:05;;;;;;;8.02;2.60;;;;;;;;;;6943492;28;20120;-83
2021/06/30 07:42:25;;;;;;;8.38;2.33;;;;;;;;;;6928361;28;20041;-81
2021/06/30 07:45:46;;;;;;;5.57;1.73;;;;;;;;;;6942960;28;20082;-81
2021/06/30 07:49:07;;;;;;;4.82;2.25;;;;;;;;;;6943371;28;20072;-83
2021/06/30 07:52:28;;;;;;;5.75;2.22;;;;;;;;;;6941152;28;20382;-83
2021/06/30 07:55:48;;;;;;;8.82;2.38;;;;;;;;;;6924521;28;20471;-82
2021/06/30 07:59:10;;;;;;;9.10;2.20;;;;;;;;;;6941911;28;20049;-82
2021/06/30 08:02:33;;;;;;;2.40;1.83;;;;;;;;;;6942464;28;20053;-80
2021/06/30 08:05:53;;;;;;;4.20;1.95;;;;;;;;;;6943013;28;20045;-81
2021/06/30 08:09:13;;;;;;;4.60;1.88;;;;;;;;;;6924715;28;20056;-80
2021/06/30 08:12:34;;;;;;;4.30;1.52;;;;;;;;;;6942309;28;20049;-81
2021/06/30 08:15:55;;;;;;;7.35;2.20;;;;;;;;;;6943050;28;20056;-81
2021/06/30 08:19:15;;;;;;;9.73;2.17;;;;;;;;;;6942552;28;20499;-84
2021/06/30 08:22:35;;;;;;;6.78;2.30;;;;;;;;;;6940344;28;20045;-80
2021/06/30 08:25:56;;;;;;;22.00;2.25;;;;;;;;;;6941010;28;20414;-80
2021/06/30 08:29:19;;;;;;;3.83;1.73;;;;;;;;;;6944134;28;20495;-79
2021/06/30 08:32:43;;;;;;;2.97;1.75;;;;;;;;;;6941795;28;20100;-80
2021/06/30 08:36:04;;;;;;;6.35;1.95;;;;;;;;;;6941923;28;20080;-80
2021/06/30 08:39:25;;;;;;;3.13;1.85;;;;;;;;;;6924159;28;20487;-80
2021/06/30 08:42:46;;;;;;;3.88;1.77;;;;;;;;;;6940408;28;20129;-81
2021/06/30 08:46:08;;;;;;;5.38;1.80;;;;;;;;;;6922540;28;20052;-82
2021/06/30 08:49:29;;;;;;;3.72;1.90;;;;;;;;;;6940734;28;20454;-82
2021/06/30 08:52:51;;;;;;;5.25;1.90;;;;;;;;;;6923562;28;20442;-80
2021/06/30 08:56:11;;;;;;;2.92;1.92;;;;;;;;;;6940615;28;20068;-80
2021/06/30 08:59:32;;;;;;;5.97;1.80;;;;;;;;;;6940603;28;20132;-80
2021/06/30 09:02:57;;;;;;;3.72;1.75;;;;;;;;;;6940230;28;20505;-80
2021/06/30 09:06:18;;;;;;;5.25;1.80;;;;;;;;;;6906231;28;20057;-78
2021/06/30 09:09:41;;;;;;;3.17;1.80;;;;;;;;;;6922587;28;20053;-79
2021/06/30 09:13:03;;;;;;;4.07;1.90;;;;;;;;;;6924877;28;20453;-79
2021/06/30 09:16:23;;;;;;;2.50;1.50;;;;;;;;;;6939877;28;20077;-80
2021/06/30 09:19:57;;;;;;;2.90;1.38;;;;;;;;;;6938420;28;20049;-80
2021/06/30 09:23:17;;;;;;;5.38;1.70;;;;;;;;;;6909910;28;20132;-81
2021/06/30 09:26:48;;;;;;;5.65;1.45;;;;;;;;;;6939891;28;20056;-80
2021/06/30 09:30:11;;;;;;;7.80;1.60;;;;;;;;;;6937130;28;20049;-81
2021/06/30 09:33:50;;;;;;;9.07;1.50;;;;;;;;;;6938895;28;20049;-79
2021/06/30 09:37:11;;;;;;;3.65;1.77;;;;;;;;;;6940465;28;20451;-83
2021/06/30 09:40:44;;;;;;;5.53;2.05;;;;;;;;;;6923935;28;20491;-80
2021/06/30 09:44:08;;;;;;;2.88;1.50;;;;;;;;;;6936360;28;20499;-81
2021/06/30 09:47:42;;;;;;;9.02;1.90;;;;;;;;;;6921953;28;20517;-80
2021/06/30 09:51:04;;;;;;;8.50;1.75;;;;;;;;;;6922524;28;20045;-80
2021/06/30 09:54:29;;;;;;;5.80;1.63;;;;;;;;;;6922413;28;20132;-81
2021/06/30 09:57:50;;;;;;;5.53;1.35;;;;;;;;;;6939068;28;20562;-80
2021/06/30 10:01:20;;;;;;;4.57;1.35;;;;;;;;;;6937834;28;20099;-80
2021/06/30 10:04:42;;;;;;;3.58;1.38;;;;;;;;;;6929469;28;20049;-80
2021/06/30 10:08:13;;;;;;;2.90;1.17;;;;;;;;;;6938987;28;20077;-81
2021/06/30 10:11:34;;;;;;;4.25;1.00;;;;;;;;;;6920990;28;20053;-82
2021/06/30 10:14:56;;;;;;;3.45;1.50;;;;;;;;;;6922360;28;20496;-81
2021/06/30 10:18:16;;;;;;;5.25;1.40;;;;;;;;;;6920708;28;20128;-82
2021/06/30 10:21:37;;;;;;;3.88;1.35;;;;;;;;;;6922961;28;20046;-82
2021/06/30 10:24:58;;;;;;;2.70;1.17;;;;;;;;;;6942965;28;20115;-82
2021/06/30 10:28:19;;;;;;;1.73;1.30;;;;;;;;;;6940226;28;20495;-81
2021/06/30 10:31:41;;;;;;;3.95;1.80;;;;;;;;;;6919252;28;20562;-81
2021/06/30 10:35:04;;;;;;;4.68;1.50;;;;;;;;;;6939384;28;20395;-82
2021/06/30 10:38:47;;;;;;;6.50;1.50;;;;;;;;;;6940151;28;20076;-81
2021/06/30 10:42:37;;;;;;;4.15;1.15;;;;;;;;;;6921088;28;20482;-80
2021/06/30 10:46:25;;;;;;;4.30;1.10;;;;;;;;;;6922509;28;20049;-81
2021/06/30 10:49:45;;;;;;;4.85;1.30;;;;;;;;;;6929175;28;20049;-81
2021/06/30 10:53:11;;;;;;;5.78;1.73;;;;;;;;;;6939458;28;20486;-81
2021/06/30 10:56:32;;;;;;;3.20;1.30;;;;;;;;;;6925060;28;20049;-81
2021/06/30 11:00:12;;;;;;;8.63;1.80;;;;;;;;;;6938861;28;20057;-81
2021/06/30 11:03:37;;;;;;;7.40;1.35;;;;;;;;;;6937092;28;20459;-80
2021/06/30 11:07:33;;;;;;;5.03;1.50;;;;;;;;;;6940036;28;20140;-80
2021/06/30 11:10:53;;;;;;;3.67;1.23;;;;;;;;;;6925807;28;20057;-80
2021/06/30 11:14:17;;;;;;;3.22;1.38;;;;;;;;;;6943857;28;20042;-81
2021/06/30 11:17:38;;;;;;;4.60;1.40;;;;;;;;;;6940001;28;20144;-81
2021/06/30 11:21:03;;;;;;;4.47;1.30;;;;;;;;;;6943549;28;20065;-80
2021/06/30 11:24:36;;;;;;;3.78;1.40;;;;;;;;;;6946209;28;20089;-81
2021/06/30 11:27:56;;;;;;;8.43;1.30;;;;;;;;;;6936036;28;20049;-80
2021/06/30 11:31:26;;;;;;;4.32;1.30;;;;;;;;;;6943526;28;20076;-80
2021/06/30 11:34:46;;;;;;;5.03;1.50;;;;;;;;;;6940389;28;20041;-80
2021/06/30 11:38:15;;;;;;;4.43;1.17;;;;;;;;;;6942710;28;20399;-79
2021/06/30 11:41:46;;;;;;;5.55;1.15;;;;;;;;;;6925443;28;20049;-79
2021/06/30 11:45:25;;;;;;;5.22;1.77;;;;;;;;;;6942696;28;20065;-79
2021/06/30 11:48:51;;;;;;;6.07;1.30;;;;;;;;;;6919360;28;20079;-79
2021/06/30 11:52:13;;;;;;;2.60;1.05;;;;;;;;;;6937187;28;20100;-79
2021/06/30 11:55:39;;;;;;;3.38;1.38;;;;;;;;;;6936312;28;20042;-78
2021/06/30 11:59:01;;;;;;;7.55;1.52;;;;;;;;;;6925423;28;20084;-79
2021/06/30 12:02:21;;;;;;;2.47;1.10;;;;;;;;;;6939854;28;20058;-79
2021/06/30 12:05:42;;;;;;;2.95;1.17;;;;;;;;;;6942407;28;20049;-79
2021/06/30 12:09:05;;;;;;;2.53;1.08;;;;;;;;;;6934231;28;20053;-79
2021/06/30 12:12:30;;;;;;;1.80;1.13;;;;;;;;;;6942285;28;20045;-79
2021/06/30 12:15:50;;;;;;;2.83;1.08;;;;;;;;;;6942922;28;20511;-79
2021/06/30 12:19:15;;;;;;;7.38;1.80;;;;;;;;;;6917530;28;20110;-79
2021/06/30 12:22:37;;;;;;;3.05;1.30;;;;;;;;;;6937066;28;20045;-79
2021/06/30 12:26:04;;;;;;;3.83;1.23;;;;;;;;;;6939978;28;20049;-79
2021/06/30 12:29:25;;;;;;;2.55;1.02;;;;;;;;;;6916058;28;20060;-80
2021/06/30 12:32:50;;;;;;;2.60;0.90;;;;;;;;;;6941115;28;20049;-81
2021/06/30 12:36:10;;;;;;;3.08;1.15;;;;;;;;;;6941196;28;20046;-81
2021/06/30 12:39:33;;;;;;;3.60;1.00;;;;;;;;;;6934900;28;20678;-81
2021/06/30 12:42:57;;;;;;;2.03;0.90;;;;;;;;;;6923511;28;21242;-82
2021/06/30 12:46:19;;;;;;;4.95;1.17;;;;;;;;;;6942110;28;20136;-80
2021/06/30 12:49:41;;;;;;;3.50;1.10;;;;;;;;;;6941355;28;20099;-80
2021/06/30 12:53:18;;;;;;;2.78;0.82;;;;;;;;;;6937931;28;20040;-80
2021/06/30 12:56:45;;;;;;;1.42;0.90;;;;;;;;;;6940879;28;20054;-81
2021/06/30 13:00:17;;;;;;;7.22;1.20;;;;;;;;;;6935483;28;20179;-80
2021/06/30 13:03:47;;;;;;;3.15;1.00;;;;;;;;;;6912908;28;20081;-81
2021/06/30 13:07:08;;;;;;;1.58;1.00;;;;;;;;;;6923087;28;20041;-79
2021/06/30 13:10:28;;;;;;;1.95;1.00;;;;;;;;;;6936177;28;20100;-81
2021/06/30 13:14:15;;;;;;;2.72;1.00;;;;;;;;;;6922728;28;20136;-79
2021/06/30 13:17:35;;;;;;;1.70;1.00;;;;;;;;;;6941664;28;20054;-78
2021/06/30 13:21:06;;;;;;;1.55;1.00;;;;;;;;;;6940487;28;20065;-79
2021/06/30 13:24:50;;;;;;;1.52;0.95;;;;;;;;;;6937155;28;20113;-80
2021/06/30 13:28:29;;;;;;;3.25;1.23;;;;;;;;;;6952286;23;20077;-74
2021/06/30 13:35:39;;;;;;;1.83;0.77;;;;;;;;;;6941693;28;20046;-75
2021/06/30 13:39:00;;;;;;;1.08;0.82;;;;;;;;;;6939110;28;20478;-75
2021/06/30 13:42:20;;;;;;;3.42;1.27;;;;;;;;;;6930675;28;20057;-75
2021/06/30 13:45:46;;;;;;;2.30;1.02;;;;;;;;;;6947875;28;20046;-76
2021/06/30 13:49:07;;;;;;;2.95;1.00;;;;;;;;;;6954234;28;20071;-76
2021/06/30 13:52:28;;;;;;;1.83;0.93;;;;;;;;;;6954994;28;20069;-75
2021/06/30 13:55:49;;;;;;;2.80;1.02;;;;;;;;;;6947919;28;20052;-76
2021/06/30 13:59:09;;;;;;;6.68;1.10;;;;;;;;;;6942036;28;20049;-75
2021/06/30 14:02:30;;;;;;;1.88;0.90;;;;;;;;;;6948802;28;20462;-74
2021/06/30 14:05:50;;;;;;;3.85;0.90;;;;;;;;;;6946496;28;20483;-75
2021/06/30 14:09:11;;;;;;;7.50;1.77;;;;;;;;;;6939076;28;20511;-77
2021/06/30 14:12:32;;;;;;;5.72;1.60;;;;;;;;;;6940141;28;20132;-76
2021/06/30 14:15:52;;;;;;;3.13;1.33;;;;;;;;;;6941207;28;20049;-77
2021/06/30 14:19:13;;;;;;;3.45;1.20;;;;;;;;;;6949684;28;20064;-78
2021/06/30 14:22:36;;;;;;;4.00;1.70;;;;;;;;;;6942093;28;20137;-78
2021/06/30 14:25:59;;;;;;;3.88;1.23;;;;;;;;;;6934936;28;20049;-78
2021/06/30 14:29:20;;;;;;;4.60;1.50;;;;;;;;;;6933263;28;20898;-77
2021/06/30 14:32:41;;;;;;;3.78;1.23;;;;;;;;;;6943585;28;20054;-77
2021/06/30 14:36:02;;;;;;;3.72;1.40;;;;;;;;;;6957529;28;20056;-76
2021/06/30 14:39:22;;;;;;;2.15;1.20;;;;;;;;;;6947340;28;20045;-75
2021/06/30 14:42:44;;;;;;;4.35;1.50;;;;;;;;;;6938928;28;20041;-76
2021/06/30 14:46:04;;;;;;;5.07;1.40;;;;;;;;;;6934895;28;20045;-75
2021/06/30 14:49:25;;;;;;;2.90;1.40;;;;;;;;;;6938898;28;20149;-76
2021/06/30 14:52:45;;;;;;;6.82;1.48;;;;;;;;;;6941495;28;20407;-75
2021/06/30 14:56:06;;;;;;;3.28;1.05;;;;;;;;;;6939219;28;20093;-75
2021/06/30 14:59:26;;;;;;;2.88;1.10;;;;;;;;;;6938500;28;20049;-75
2021/06/30 15:02:48;;;;;;;3.38;1.15;;;;;;;;;;6939597;28;20041;-75
2021/06/30 15:06:08;;;;;;;5.22;1.45;;;;;;;;;;6934197;28;20041;-76
2021/06/30 15:09:29;;;;;;;3.67;1.13;;;;;;;;;;6929741;28;20042;-76
2021/06/30 15:12:52;;;;;;;2.95;1.10;;;;;;;;;;6938629;28;20060;-76
2021/06/30 15:16:12;;;;;;;4.43;1.45;;;;;;;;;;6927928;28;20046;-77
2021/06/30 15:19:33;;;;;;;4.25;1.30;;;;;;;;;;6937190;28;20048;-76
2021/06/30 15:22:53;;;;;;;2.47;1.10;;;;;;;;;;6937451;28;20041;-76
2021/06/30 15:26:14;;;;;;;3.10;1.10;;;;;;;;;;6940724;28;20046;-76
2021/06/30 15:29:34;;;;;;;3.78;1.33;;;;;;;;;;6923891;28;20060;-75
2021/06/30 15:32:54;;;;;;;2.25;0.98;;;;;;;;;;6943116;28;20033;-75
2021/06/30 15:36:15;;;;;;;1.73;1.00;;;;;;;;;;6951873;28;20074;-77
2021/06/30 15:39:35;;;;;;;3.95;1.25;;;;;;;;;;6940244;28;20049;-77
2021/06/30 15:42:56;;;;;;;3.58;1.13;;;;;;;;;;6930728;28;20116;-77
2021/06/30 15:46:17;;;;;;;4.32;1.10;;;;;;;;;;6928501;28;20049;-77
2021/06/30 15:49:37;;;;;;;2.03;1.00;;;;;;;;;;6916248;28;20050;-76
2021/06/30 15:52:58;;;;;;;4.53;1.15;;;;;;;;;;6935077;28;20095;-76
2021/06/30 15:56:18;;;;;;;4.15;1.27;;;;;;;;;;6945528;28;20038;-76
2021/06/30 15:59:39;;;;;;;1.83;0.90;;;;;;;;;;6930773;28;20053;-76
2021/06/30 16:03:00;;;;;;;1.33;1.00;;;;;;;;;;6942111;28;20129;-76
2021/06/30 16:06:20;;;;;;;2.67;1.08;;;;;;;;;;6931114;28;20046;-76
2021/06/30 16:09:40;;;;;;;2.63;1.00;;;;;;;;;;6935151;28;20195;-75
2021/06/30 16:13:01;;;;;;;2.35;1.00;;;;;;;;;;6940240;28;20518;-76
2021/06/30 16:16:21;;;;;;;1.35;0.75;;;;;;;;;;6942697;28;20048;-76
2021/06/30 16:19:42;;;;;;;2.15;1.20;;;;;;;;;;6929846;28;20057;-75
2021/06/30 16:23:02;;;;;;;2.97;1.20;;;;;;;;;;6942272;28;20046;-76
2021/06/30 16:26:23;;;;;;;1.67;0.90;;;;;;;;;;6929388;28;20514;-75
2021/06/30 16:29:45;;;;;;;2.92;1.17;;;;;;;;;;6939337;28;20056;-75
2021/06/30 16:33:07;;;;;;;2.58;1.10;;;;;;;;;;6940596;28;20464;-78
2021/06/30 16:36:31;;;;;;;4.07;1.38;;;;;;;;;;6941802;28;20123;-76
2021/06/30 16:39:52;;;;;;;1.92;0.93;;;;;;;;;;6937794;28;20045;-76
2021/06/30 16:43:12;;;;;;;1.75;0.90;;;;;;;;;;6941132;28;20049;-76
2021/06/30 16:46:33;;;;;;;1.75;1.10;;;;;;;;;;6937393;28;20513;-74
2021/06/30 16:49:54;;;;;;;2.45;1.00;;;;;;;;;;6941979;28;20057;-74
2021/06/30 16:53:14;;;;;;;3.80;1.00;;;;;;;;;;6955199;28;20041;-74
2021/06/30 16:56:35;;;;;;;2.80;1.20;;;;;;;;;;6929506;28;20147;-74
2021/06/30 16:59:58;;;;;;;3.13;0.90;;;;;;;;;;6952765;28;20419;-74
2021/06/30 17:03:18;;;;;;;2.78;0.98;;;;;;;;;;6938543;28;20057;-74
2021/06/30 17:06:39;;;;;;;1.48;0.90;;;;;;;;;;6940954;28;20137;-73
2021/06/30 17:10:00;;;;;;;1.73;1.02;;;;;;;;;;6928308;28;20037;-74
2021/06/30 17:13:21;;;;;;;1.00;0.80;;;;;;;;;;6939908;28;20056;-74
2021/06/30 17:16:41;;;;;;;1.95;0.70;;;;;;;;;;6939433;28;20069;-74
2021/06/30 17:20:05;;;;;;;1.33;0.70;;;;;;;;;;6940719;28;20045;-74
2021/06/30 17:23:25;;;;;;;1.52;1.10;;;;;;;;;;6939520;28;20045;-74
2021/06/30 17:26:46;;;;;;;1.33;0.90;;;;;;;;;;6941042;28;20137;-74
2021/06/30 17:30:09;;;;;;;0.85;0.82;;;;;;;;;;6940559;28;20077;-75
2021/06/30 17:33:29;;;;;;;1.67;0.90;;;;;;;;;;6933959;28;20543;-76
2021/06/30 17:36:50;;;;;;;2.38;1.02;;;;;;;;;;6938241;28;20060;-75
2021/06/30 17:40:11;;;;;;;1.80;0.80;;;;;;;;;;6940859;28;21369;-74
2021/06/30 17:43:33;;;;;;;0.95;0.73;;;;;;;;;;6940407;28;20041;-75
2021/06/30 17:46:53;;;;;;;5.40;1.00;;;;;;;;;;6932618;28;20056;-73
2021/06/30 17:50:15;;;;;;;2.45;1.00;;;;;;;;;;6930589;28;20132;-77
2021/06/30 17:53:35;;;;;;;1.95;0.85;;;;;;;;;;6940828;28;20048;-75
2021/06/30 17:56:56;;;;;;;1.88;0.73;;;;;;;;;;6926101;28;20053;-75
2021/06/30 18:00:17;;;;;;;1.98;0.68;;;;;;;;;;6930456;28;20053;-75
2021/06/30 18:03:38;;;;;;;0.82;0.50;;;;;;;;;;6940480;28;20077;-76
2021/06/30 18:06:58;;;;;;;0.85;0.60;;;;;;;;;;6937295;28;20404;-75
2021/06/30 18:10:22;;;;;;;1.33;0.73;;;;;;;;;;6939933;28;20053;-75
2021/06/30 18:13:42;;;;;;;9.23;0.88;;;;;;;;;;6939835;28;20057;-77
2021/06/30 18:17:03;;;;;;;1.05;0.70;;;;;;;;;;6939323;28;20461;-75
2021/06/30 18:20:25;;;;;;;3.90;0.88;;;;;;;;;;6936735;28;20076;-75
2021/06/30 18:23:45;;;;;;;21.92;1.05;;;;;;;;;;6934121;28;20049;-75
2021/06/30 18:27:06;;;;;;;2.40;0.70;;;;;;;;;;6929251;28;20399;-75
2021/06/30 18:30:26;;;;;;;1.45;0.77;;;;;;;;;;6938380;28;20049;-76
2021/06/30 18:33:47;;;;;;;1.30;0.73;;;;;;;;;;6939625;28;20088;-77
2021/06/30 18:37:08;;;;;;;2.97;0.70;;;;;;;;;;6936576;28;20080;-75
2021/06/30 18:40:29;;;;;;;2.05;0.85;;;;;;;;;;6927513;28;20049;-75
2021/06/30 18:43:50;;;;;;;1.67;0.93;;;;;;;;;;6936136;28;20051;-75
2021/06/30 18:47:11;;;;;;;1.48;0.70;;;;;;;;;;6941421;28;20049;-75
2021/06/30 18:50:31;;;;;;;1.40;0.70;;;;;;;;;;6944343;28;20411;-74
2021/06/30 18:53:52;;;;;;;2.13;0.88;;;;;;;;;;6926827;28;20046;-75
2021/06/30 18:57:12;;;;;;;1.30;0.80;;;;;;;;;;6938995;28;20049;-75
2021/06/30 19:00:34;;;;;;;0.70;0.70;;;;;;;;;;6939429;28;21421;-75
2021/06/30 19:03:56;;;;;;;0.75;0.57;;;;;;;;;;6939032;28;20060;-74
2021/06/30 19:07:16;;;;;;;1.05;0.60;;;;;;;;;;6937473;28;20049;-75
2021/06/30 19:10:37;;;;;;;1.15;0.70;;;;;;;;;;6938582;28;20047;-75
2021/06/30 19:13:57;;;;;;;0.90;0.68;;;;;;;;;;6939309;28;20041;-75
2021/06/30 19:17:18;;;;;;;1.98;0.80;;;;;;;;;;6938878;28;20038;-74
2021/06/30 19:20:39;;;;;;;1.08;0.80;;;;;;;;;;6937836;28;20128;-77
2021/06/30 19:24:00;;;;;;;0.68;0.63;;;;;;;;;;6928902;28;20057;-74
2021/06/30 19:27:21;;;;;;;0.82;0.50;;;;;;;;;;6939039;28;20053;-75
2021/06/30 19:30:42;;;;;;;0.75;0.60;;;;;;;;;;6943292;28;20054;-74
2021/06/30 19:34:03;;;;;;;0.50;0.50;;;;;;;;;;6943221;28;20045;-74
2021/06/30 19:37:23;;;;;;;1.35;0.77;;;;;;;;;;6930320;28;20176;-73
2021/06/30 19:40:44;;;;;;;0.82;0.70;;;;;;;;;;6938545;28;20052;-74
2021/06/30 19:44:04;;;;;;;1.63;0.90;;;;;;;;;;6941191;28;20167;-75
2021/06/30 19:47:25;;;;;;;2.83;0.70;;;;;;;;;;6937489;28;20376;-75
2021/06/30 19:50:47;;;;;;;1.80;0.93;;;;;;;;;;6943151;28;20057;-74
2021/06/30 19:54:07;;;;;;;1.73;0.63;;;;;;;;;;6934845;28;20488;-74
2021/06/30 19:57:28;;;;;;;0.85;0.50;;;;;;;;;;6941008;28;20053;-74
2021/06/30 20:00:48;;;;;;;0.82;0.63;;;;;;;;;;6943269;28;20083;-74
2021/06/30 20:04:09;;;;;;;1.75;0.70;;;;;;;;;;6943265;28;20088;-75
2021/06/30 20:07:29;;;;;;;1.20;0.82;;;;;;;;;;6942800;28;20392;-74
2021/06/30 20:10:50;;;;;;;0.60;0.60;;;;;;;;;;6942756;28;20037;-76
2021/06/30 20:14:12;;;;;;;1.20;0.60;;;;;;;;;;6937911;28;20049;-75
2021/06/30 20:17:33;;;;;;;0.50;0.50;;;;;;;;;;6942652;28;20065;-74
2021/06/30 20:20:54;;;;;;;1.00;0.85;;;;;;;;;;6942891;28;20041;-75